createdAt,value
2018-08-27T00:00:02.985Z,13.21
2018-08-27T00:01:02.993Z,13.26
2018-08-27T00:02:02.991Z,13.28
2018-08-27T00:03:02.951Z,13.31
2018-08-27T00:04:03.008Z,13.33
2018-08-27T00:05:02.980Z,13.31
2018-08-27T00:06:02.986Z,13.36
2018-08-27T00:07:02.972Z,13.3
2018-08-27T00:08:02.966Z,13.33
2018-08-27T00:09:03.015Z,13.28
2018-08-27T00:10:02.981Z,13.2
2018-08-27T00:11:02.982Z,13.3
2018-08-27T00:12:02.988Z,13.27
2018-08-27T00:13:03.005Z,13.31
2018-08-27T00:14:02.968Z,13.31
2018-08-27T00:15:03.018Z,13.27
2018-08-27T00:16:02.994Z,13.3
2018-08-27T00:17:02.966Z,13.2
2018-08-27T00:18:03.006Z,13.2
2018-08-27T00:19:02.977Z,13.23
2018-08-27T00:20:02.972Z,13.11
2018-08-27T00:21:02.989Z,13.13
2018-08-27T00:22:02.948Z,13.2
2018-08-27T00:26:32.877Z,13.11
2018-08-27T00:27:32.927Z,13.11
2018-08-27T00:28:32.899Z,13.05
2018-08-27T00:29:32.868Z,12.99
2018-08-27T00:30:32.812Z,13.01
2018-08-27T00:31:32.845Z,13.19
2018-08-27T00:32:32.823Z,12.9
2018-08-27T00:33:32.827Z,12.91
2018-08-27T00:34:32.831Z,12.94
2018-08-27T00:35:32.848Z,12.95
2018-08-27T00:36:32.885Z,13.01
2018-08-27T00:37:32.812Z,13.02
2018-08-27T00:38:32.862Z,12.99
2018-08-27T00:39:32.839Z,12.93
2018-08-27T00:40:32.847Z,13.01
2018-08-27T00:41:32.842Z,12.91
2018-08-27T00:42:32.880Z,12.94
2018-08-27T00:43:32.903Z,12.95
2018-08-27T00:44:32.840Z,12.91
2018-08-27T00:45:32.877Z,12.83
2018-08-27T00:46:32.915Z,12.84
2018-08-27T00:47:32.923Z,12.73
2018-08-27T00:48:32.858Z,12.83
2018-08-27T00:49:32.890Z,12.8
2018-08-27T00:50:32.907Z,12.84
2018-08-27T00:55:50.035Z,12.73
2018-08-27T00:56:02.663Z,12.76
2018-08-27T00:57:02.713Z,12.66
2018-08-27T00:58:02.688Z,12.72
2018-08-27T00:59:02.628Z,12.73
2018-08-27T01:00:02.684Z,12.78
2018-08-27T01:01:02.668Z,12.68
2018-08-27T01:02:02.669Z,12.73
2018-08-27T01:03:02.689Z,12.69
2018-08-27T01:04:02.663Z,12.65
2018-08-27T01:05:02.664Z,12.65
2018-08-27T01:06:02.644Z,12.62
2018-08-27T01:07:02.664Z,12.62
2018-08-27T01:08:02.682Z,12.61
2018-08-27T01:09:02.687Z,12.48
2018-08-27T01:10:02.724Z,12.55
2018-08-27T01:11:02.698Z,12.44
2018-08-27T01:12:02.663Z,12.4
2018-08-27T01:13:02.677Z,12.48
2018-08-27T01:14:02.687Z,12.62
2018-08-27T01:15:02.679Z,12.65
2018-08-27T01:16:02.701Z,12.75
2018-08-27T01:17:02.696Z,12.73
2018-08-27T01:18:02.677Z,12.63
2018-08-27T01:19:02.707Z,12.55
2018-08-27T01:20:02.716Z,12.72
2018-08-27T01:21:02.698Z,12.58
2018-08-27T01:22:02.728Z,12.63
2018-08-27T01:23:02.664Z,12.65
2018-08-27T01:24:02.743Z,12.54
2018-08-27T01:25:02.751Z,12.53
2018-08-27T01:26:02.697Z,12.62
2018-08-27T01:27:02.771Z,12.58
2018-08-27T01:28:02.715Z,12.44
2018-08-27T01:29:02.670Z,12.35
2018-08-27T01:30:02.714Z,12.35
2018-08-27T01:31:02.689Z,12.33
2018-08-27T01:32:15.945Z,12.35
2018-08-27T01:33:04.018Z,12.32
2018-08-27T01:34:06.515Z,12.32
2018-08-27T01:35:03.204Z,12.32
2018-08-27T01:36:02.737Z,12.47
2018-08-27T01:37:02.762Z,12.39
2018-08-27T01:38:02.767Z,12.39
2018-08-27T01:39:02.769Z,12.45
2018-08-27T01:40:02.717Z,12.39
2018-08-27T01:41:02.684Z,12.43
2018-08-27T01:42:02.686Z,12.35
2018-08-27T01:46:31.609Z,12.23
2018-08-27T01:47:31.560Z,12.23
2018-08-27T01:48:31.534Z,12.21
2018-08-27T01:49:31.606Z,12.18
2018-08-27T01:50:31.557Z,12.14
2018-08-27T01:51:31.607Z,12.26
2018-08-27T01:52:31.557Z,12.23
2018-08-27T01:53:31.631Z,12.2
2018-08-27T01:54:31.574Z,12.18
2018-08-27T01:55:31.549Z,12.2
2018-08-27T01:56:31.589Z,12.23
2018-08-27T01:57:31.578Z,12.18
2018-08-27T01:58:31.635Z,12.23
2018-08-27T01:59:31.583Z,12.23
2018-08-27T02:00:31.578Z,12.21
2018-08-27T02:01:31.597Z,12.15
2018-08-27T02:02:31.590Z,12.17
2018-08-27T02:03:31.600Z,12.17
2018-08-27T02:04:31.582Z,12.18
2018-08-27T02:05:31.599Z,12.17
2018-08-27T02:06:31.614Z,12.15
2018-08-27T02:07:31.599Z,12.21
2018-08-27T02:08:31.608Z,12.23
2018-08-27T02:09:31.636Z,12.18
2018-08-27T02:10:31.584Z,12.17
2018-08-27T02:11:31.580Z,12.17
2018-08-27T02:12:31.632Z,12.21
2018-08-27T02:13:31.638Z,12.21
2018-08-27T02:14:31.613Z,12.33
2018-08-27T02:15:31.619Z,12.25
2018-08-27T02:16:31.682Z,12.25
2018-08-27T02:17:31.620Z,12.21
2018-08-27T02:18:31.682Z,12.2
2018-08-27T02:19:31.596Z,12.33
2018-08-27T02:20:31.593Z,12.28
2018-08-27T02:21:31.576Z,12.23
2018-08-27T02:22:31.685Z,12.2
2018-08-27T02:23:31.590Z,12.26
2018-08-27T02:24:31.599Z,12.12
2018-08-27T02:25:31.625Z,12.03
2018-08-27T02:26:31.626Z,12.17
2018-08-27T02:27:31.638Z,12.14
2018-08-27T02:29:31.697Z,12.12
2018-08-27T02:30:31.684Z,12.21
2018-08-27T02:31:31.679Z,12.11
2018-08-27T02:32:31.665Z,12.21
2018-08-27T02:33:31.726Z,12.14
2018-08-27T02:34:31.635Z,12.17
2018-08-27T02:35:31.681Z,12.17
2018-08-27T02:36:31.686Z,12.12
2018-08-27T02:37:31.630Z,12.08
2018-08-27T02:38:31.635Z,12.14
2018-08-27T02:39:31.668Z,12.05
2018-08-27T02:40:31.714Z,11.99
2018-08-27T02:41:31.684Z,12.05
2018-08-27T02:42:31.656Z,12.02
2018-08-27T02:43:31.656Z,11.97
2018-08-27T02:44:31.672Z,12
2018-08-27T02:45:31.670Z,11.95
2018-08-27T02:46:32.025Z,11.93
2018-08-27T02:47:31.692Z,11.89
2018-08-27T02:48:31.688Z,11.85
2018-08-27T02:49:31.680Z,11.8
2018-08-27T02:50:31.651Z,11.78
2018-08-27T02:51:31.670Z,11.74
2018-08-27T02:52:31.713Z,11.78
2018-08-27T02:53:31.698Z,11.7
2018-08-27T02:54:31.696Z,11.73
2018-08-27T02:55:31.666Z,11.67
2018-08-27T02:56:31.703Z,11.68
2018-08-27T02:57:31.693Z,11.71
2018-08-27T02:58:31.724Z,11.7
2018-08-27T02:59:31.739Z,11.74
2018-08-27T03:00:31.694Z,11.76
2018-08-27T03:01:31.680Z,11.73
2018-08-27T03:02:31.711Z,11.73
2018-08-27T03:03:31.656Z,11.8
2018-08-27T03:04:31.720Z,11.7
2018-08-27T03:05:31.742Z,11.73
2018-08-27T03:06:31.747Z,11.76
2018-08-27T03:07:31.640Z,11.76
2018-08-27T03:08:31.696Z,11.68
2018-08-27T03:09:31.347Z,11.67
2018-08-27T03:10:31.659Z,11.71
2018-08-27T03:11:31.701Z,11.6
2018-08-27T03:12:31.681Z,11.74
2018-08-27T03:13:31.721Z,11.67
2018-08-27T03:14:31.686Z,11.67
2018-08-27T03:15:31.659Z,11.65
2018-08-27T03:16:31.775Z,11.62
2018-08-27T03:17:31.663Z,11.56
2018-08-27T03:18:31.877Z,11.56
2018-08-27T03:19:31.705Z,11.59
2018-08-27T03:20:31.743Z,11.58
2018-08-27T03:21:31.736Z,11.51
2018-08-27T03:22:31.768Z,11.49
2018-08-27T03:23:31.724Z,11.59
2018-08-27T03:24:31.680Z,11.49
2018-08-27T03:25:31.741Z,11.48
2018-08-27T03:26:31.731Z,11.45
2018-08-27T03:27:31.760Z,11.49
2018-08-27T03:28:31.743Z,11.43
2018-08-27T03:38:10.586Z,11.44
2018-08-27T03:38:22.863Z,11.41
2018-08-27T03:39:22.880Z,11.55
2018-08-27T03:40:22.807Z,11.49
2018-08-27T03:41:22.851Z,11.44
2018-08-27T03:42:22.820Z,11.49
2018-08-27T03:43:24.680Z,11.48
2018-08-27T03:44:22.853Z,11.43
2018-08-27T03:45:22.877Z,11.45
2018-08-27T03:46:22.855Z,11.48
2018-08-27T03:47:22.906Z,11.56
2018-08-27T03:48:23.588Z,11.56
2018-08-27T03:49:22.868Z,11.52
2018-08-27T03:50:22.875Z,11.48
2018-08-27T03:51:22.858Z,11.44
2018-08-27T03:52:22.896Z,11.43
2018-08-27T03:53:22.862Z,11.37
2018-08-27T03:54:22.881Z,11.44
2018-08-27T03:55:22.897Z,11.52
2018-08-27T03:56:22.919Z,11.52
2018-08-27T03:57:22.831Z,11.52
2018-08-27T03:58:22.898Z,11.52
2018-08-27T03:59:22.836Z,11.43
2018-08-27T04:00:22.909Z,11.45
2018-08-27T04:01:22.856Z,11.6
2018-08-27T04:02:22.889Z,11.45
2018-08-27T04:03:22.867Z,11.51
2018-08-27T04:04:22.882Z,11.43
2018-08-27T04:05:23.041Z,11.55
2018-08-27T04:06:22.885Z,11.59
2018-08-27T04:07:22.854Z,11.56
2018-08-27T04:08:23.523Z,11.62
2018-08-27T04:09:22.908Z,11.52
2018-08-27T04:10:22.869Z,11.51
2018-08-27T04:11:22.864Z,11.52
2018-08-27T04:12:22.880Z,11.49
2018-08-27T04:13:22.896Z,11.52
2018-08-27T04:14:22.892Z,11.51
2018-08-27T04:15:22.905Z,11.56
2018-08-27T04:16:22.933Z,11.48
2018-08-27T04:17:22.923Z,11.45
2018-08-27T04:18:22.957Z,11.45
2018-08-27T04:19:22.935Z,11.43
2018-08-27T04:20:22.886Z,11.45
2018-08-27T04:21:22.923Z,11.45
2018-08-27T04:22:22.892Z,11.4
2018-08-27T04:23:22.920Z,11.45
2018-08-27T04:24:22.934Z,11.41
2018-08-27T04:25:22.873Z,11.34
2018-08-27T04:26:22.872Z,11.41
2018-08-27T04:27:22.876Z,11.48
2018-08-27T04:28:23.000Z,11.49
2018-08-27T04:29:22.936Z,11.53
2018-08-27T04:36:02.464Z,11.67
2018-08-27T04:37:02.463Z,11.62
2018-08-27T04:38:02.474Z,11.58
2018-08-27T04:39:02.481Z,11.73
2018-08-27T04:40:02.416Z,11.7
2018-08-27T04:41:02.485Z,11.62
2018-08-27T04:42:02.470Z,11.65
2018-08-27T04:43:02.451Z,11.59
2018-08-27T04:44:02.525Z,11.77
2018-08-27T04:45:02.455Z,11.59
2018-08-27T04:46:02.470Z,11.68
2018-08-27T04:47:02.540Z,11.59
2018-08-27T04:48:02.453Z,11.53
2018-08-27T04:49:02.458Z,11.59
2018-08-27T04:50:02.453Z,11.62
2018-08-27T04:51:02.491Z,11.67
2018-08-27T04:52:02.499Z,11.62
2018-08-27T04:53:02.474Z,11.59
2018-08-27T04:54:02.479Z,11.58
2018-08-27T04:55:02.530Z,11.65
2018-08-27T04:56:02.448Z,11.7
2018-08-27T04:57:22.343Z,11.62
2018-08-27T04:58:02.460Z,11.73
2018-08-27T04:59:02.480Z,11.73
2018-08-27T05:00:02.511Z,11.78
2018-08-27T05:01:02.517Z,11.88
2018-08-27T05:02:02.500Z,11.93
2018-08-27T05:03:02.496Z,11.91
2018-08-27T05:04:02.488Z,11.86
2018-08-27T05:05:02.516Z,11.89
2018-08-27T05:06:02.497Z,12
2018-08-27T05:07:02.503Z,11.95
2018-08-27T05:08:02.508Z,11.93
2018-08-27T05:09:02.482Z,12.08
2018-08-27T05:10:02.526Z,12.02
2018-08-27T05:11:02.486Z,12.14
2018-08-27T05:12:02.494Z,12.08
2018-08-27T05:13:02.502Z,12.15
2018-08-27T05:14:02.490Z,12.14
2018-08-27T05:15:02.514Z,12.18
2018-08-27T05:16:02.489Z,12.28
2018-08-27T05:17:02.557Z,12.32
2018-08-27T05:18:02.491Z,12.36
2018-08-27T05:19:02.604Z,12.29
2018-08-27T05:20:02.522Z,12.4
2018-08-27T05:21:02.549Z,12.47
2018-08-27T05:22:02.517Z,12.45
2018-08-27T05:23:02.534Z,12.55
2018-08-27T05:24:02.495Z,12.66
2018-08-27T05:25:02.542Z,12.62
2018-08-27T05:26:02.520Z,12.63
2018-08-27T05:27:02.496Z,12.76
2018-08-27T05:28:02.526Z,12.73
2018-08-27T05:29:02.549Z,12.7
2018-08-27T05:30:02.549Z,12.81
2018-08-27T05:31:02.736Z,12.87
2018-08-27T05:32:02.550Z,12.91
2018-08-27T05:33:02.527Z,12.93
2018-08-27T05:34:02.559Z,12.93
2018-08-27T05:35:02.543Z,12.98
2018-08-27T05:36:02.524Z,13.05
2018-08-27T05:37:02.609Z,13.05
2018-08-27T05:38:02.600Z,13.02
2018-08-27T05:39:02.544Z,13.16
2018-08-27T05:40:02.530Z,13.26
2018-08-27T05:41:02.552Z,13.28
2018-08-27T05:48:29.581Z,13.42
2018-08-27T05:48:41.944Z,13.79
2018-08-27T05:49:41.810Z,13.85
2018-08-27T05:50:41.823Z,13.93
2018-08-27T05:51:41.794Z,13.94
2018-08-27T05:52:41.799Z,13.86
2018-08-27T05:53:41.866Z,13.97
2018-08-27T05:54:41.852Z,14
2018-08-27T05:55:41.826Z,14.11
2018-08-27T05:56:41.835Z,14.11
2018-08-27T05:57:41.843Z,14.12
2018-08-27T05:58:41.802Z,14.16
2018-08-27T05:59:41.820Z,14.16
2018-08-27T06:00:41.859Z,14.28
2018-08-27T06:01:41.977Z,14.34
2018-08-27T06:02:41.883Z,14.34
2018-08-27T06:03:41.842Z,14.34
2018-08-27T06:04:41.866Z,14.4
2018-08-27T06:05:41.880Z,14.48
2018-08-27T06:06:41.891Z,14.43
2018-08-27T06:07:41.836Z,14.59
2018-08-27T06:08:41.874Z,14.51
2018-08-27T06:09:41.978Z,14.7
2018-08-27T06:10:41.859Z,14.68
2018-08-27T06:11:41.856Z,14.66
2018-08-27T06:12:41.878Z,14.79
2018-08-27T06:13:41.837Z,14.71
2018-08-27T06:14:41.857Z,14.67
2018-08-27T06:15:41.854Z,14.81
2018-08-27T06:16:42.080Z,14.82
2018-08-27T06:17:41.857Z,14.81
2018-08-27T06:18:41.870Z,14.77
2018-08-27T06:19:41.917Z,14.96
2018-08-27T06:20:41.853Z,14.86
2018-08-27T06:21:41.855Z,14.92
2018-08-27T06:22:41.868Z,14.94
2018-08-27T06:23:41.940Z,14.97
2018-08-27T06:24:41.844Z,15.07
2018-08-27T06:25:41.872Z,15.11
2018-08-27T06:26:41.852Z,15.14
2018-08-27T06:27:41.909Z,15.26
2018-08-27T06:28:41.869Z,15.25
2018-08-27T06:29:41.990Z,15.23
2018-08-27T06:30:41.904Z,15.15
2018-08-27T06:31:41.866Z,15.3
2018-08-27T06:32:41.967Z,15.33
2018-08-27T06:33:42.002Z,15.51
2018-08-27T06:34:41.882Z,15.35
2018-08-27T06:35:41.869Z,15.39
2018-08-27T06:36:41.954Z,15.39
2018-08-27T06:39:01.390Z,15.43
2018-08-27T06:40:01.342Z,15.32
2018-08-27T06:41:01.368Z,15.41
2018-08-27T06:42:01.437Z,15.51
2018-08-27T06:43:01.281Z,15.5
2018-08-27T06:44:01.399Z,15.5
2018-08-27T06:45:01.361Z,15.5
2018-08-27T06:46:01.383Z,15.55
2018-08-27T06:47:02.492Z,15.59
2018-08-27T06:48:01.422Z,15.63
2018-08-27T06:49:01.414Z,15.52
2018-08-27T06:50:01.388Z,15.51
2018-08-27T06:51:01.394Z,15.59
2018-08-27T06:52:01.466Z,15.69
2018-08-27T06:53:01.410Z,15.73
2018-08-27T06:54:01.428Z,15.7
2018-08-27T06:55:01.385Z,15.72
2018-08-27T06:56:01.433Z,15.9
2018-08-27T06:57:01.427Z,15.9
2018-08-27T06:58:01.453Z,15.94
2018-08-27T06:59:01.952Z,16.02
2018-08-27T07:00:01.404Z,16.17
2018-08-27T07:01:01.402Z,16.44
2018-08-27T07:02:01.410Z,16.47
2018-08-27T07:03:01.376Z,16.46
2018-08-27T07:04:01.394Z,16.55
2018-08-27T07:05:01.389Z,16.57
2018-08-27T07:06:01.417Z,16.76
2018-08-27T07:07:01.435Z,16.74
2018-08-27T07:08:01.380Z,16.58
2018-08-27T07:09:01.411Z,16.64
2018-08-27T07:10:01.395Z,16.64
2018-08-27T07:11:01.424Z,16.72
2018-08-27T07:12:00.962Z,16.77
2018-08-27T07:13:01.413Z,16.86
2018-08-27T07:14:01.445Z,16.83
2018-08-27T07:15:01.397Z,16.94
2018-08-27T07:16:01.401Z,17.04
2018-08-27T07:17:01.425Z,17.13
2018-08-27T07:18:01.416Z,17.22
2018-08-27T07:19:01.415Z,17.14
2018-08-27T07:20:01.487Z,17.05
2018-08-27T07:21:01.456Z,17.17
2018-08-27T07:22:01.390Z,17.19
2018-08-27T07:23:01.449Z,17.09
2018-08-27T07:24:01.470Z,17.19
2018-08-27T07:25:01.448Z,17.22
2018-08-27T07:26:01.485Z,17.14
2018-08-27T07:27:01.401Z,17.13
2018-08-27T07:28:01.413Z,17.12
2018-08-27T07:29:01.401Z,17.07
2018-08-27T07:30:01.456Z,17.12
2018-08-27T07:31:01.772Z,17.2
2018-08-27T07:32:01.419Z,17.13
2018-08-27T07:39:27.902Z,17.41
2018-08-27T07:39:40.189Z,17.44
2018-08-27T07:40:40.269Z,17.53
2018-08-27T07:41:40.172Z,17.57
2018-08-27T07:42:40.177Z,17.53
2018-08-27T07:43:40.310Z,17.84
2018-08-27T07:44:40.260Z,17.93
2018-08-27T07:45:40.160Z,18.02
2018-08-27T07:46:40.217Z,18.27
2018-08-27T07:47:40.169Z,18.37
2018-08-27T07:48:40.168Z,18.68
2018-08-27T07:49:40.176Z,18.85
2018-08-27T07:50:40.296Z,18.81
2018-08-27T07:51:40.190Z,18.86
2018-08-27T07:52:40.211Z,18.85
2018-08-27T07:53:40.175Z,19.2
2018-08-27T07:54:40.214Z,19.2
2018-08-27T07:55:39.853Z,19.3
2018-08-27T07:56:40.187Z,19.62
2018-08-27T07:57:40.196Z,19.59
2018-08-27T07:58:40.301Z,19.63
2018-08-27T07:59:40.206Z,19.29
2018-08-27T08:00:40.213Z,19.38
2018-08-27T08:01:40.180Z,19.41
2018-08-27T08:02:40.220Z,19.44
2018-08-27T08:03:40.176Z,19.41
2018-08-27T08:04:40.386Z,19.57
2018-08-27T08:05:40.175Z,19.62
2018-08-27T08:06:40.184Z,19.6
2018-08-27T08:07:40.320Z,19.66
2018-08-27T08:08:40.222Z,19.72
2018-08-27T08:09:40.233Z,19.62
2018-08-27T08:10:40.169Z,19.56
2018-08-27T08:11:40.178Z,19.48
2018-08-27T08:12:40.181Z,19.57
2018-08-27T08:13:40.204Z,19.57
2018-08-27T08:14:40.182Z,19.6
2018-08-27T08:15:40.224Z,19.74
2018-08-27T08:16:40.257Z,19.78
2018-08-27T08:17:40.228Z,19.74
2018-08-27T08:18:40.184Z,20.07
2018-08-27T08:19:40.191Z,20.03
2018-08-27T08:20:40.174Z,20.02
2018-08-27T08:21:40.218Z,19.9
2018-08-27T08:22:40.245Z,19.94
2018-08-27T08:23:40.187Z,19.93
2018-08-27T08:24:40.205Z,19.75
2018-08-27T08:25:40.201Z,19.82
2018-08-27T08:26:40.170Z,19.82
2018-08-27T08:27:40.222Z,19.85
2018-08-27T08:28:40.220Z,19.94
2018-08-27T08:29:40.190Z,20.07
2018-08-27T08:30:40.235Z,19.99
2018-08-27T08:31:40.208Z,20.07
2018-08-27T08:32:40.214Z,20.08
2018-08-27T08:33:40.217Z,20.22
2018-08-27T08:34:39.758Z,20.21
2018-08-27T08:35:40.216Z,20.34
2018-08-27T08:36:40.203Z,20.67
2018-08-27T08:37:40.229Z,20.78
2018-08-27T08:38:40.223Z,20.96
2018-08-27T08:39:39.747Z,21.35
2018-08-27T08:40:40.196Z,21.53
2018-08-27T08:41:40.202Z,21.6
2018-08-27T08:42:40.216Z,21.59
2018-08-27T08:43:40.255Z,21.83
2018-08-27T08:44:40.265Z,22
2018-08-27T08:45:40.236Z,22.03
2018-08-27T08:46:40.250Z,22.18
2018-08-27T08:47:40.225Z,22.37
2018-08-27T08:48:40.263Z,22.31
2018-08-27T08:49:40.229Z,22.67
2018-08-27T08:50:40.265Z,22.81
2018-08-27T08:51:40.267Z,23.14
2018-08-27T08:52:40.263Z,23.32
2018-08-27T08:53:40.384Z,23.33
2018-08-27T08:54:40.225Z,23.49
2018-08-27T08:55:40.230Z,23.37
2018-08-27T08:56:40.346Z,23.26
2018-08-27T08:57:40.313Z,23.04
2018-08-27T08:58:40.359Z,22.92
2018-08-27T08:59:40.256Z,23.23
2018-08-27T09:00:40.294Z,23.34
2018-08-27T09:01:40.466Z,23.04
2018-08-27T09:02:40.317Z,23.01
2018-08-27T09:03:40.321Z,23.02
2018-08-27T09:04:40.294Z,23.18
2018-08-27T09:05:40.273Z,23.06
2018-08-27T09:06:40.306Z,22.99
2018-08-27T09:07:40.300Z,23.07
2018-08-27T09:08:40.464Z,23.02
2018-08-27T09:09:40.293Z,22.99
2018-08-27T09:10:40.288Z,23.08
2018-08-27T09:11:40.343Z,22.98
2018-08-27T09:12:40.337Z,22.78
2018-08-27T09:13:40.308Z,22.99
2018-08-27T09:14:40.350Z,22.95
2018-08-27T09:15:40.288Z,23.07
2018-08-27T09:16:40.435Z,23.26
2018-08-27T09:17:40.427Z,23.18
2018-08-27T09:18:40.305Z,23.07
2018-08-27T09:19:40.318Z,23.25
2018-08-27T09:20:40.338Z,23.11
2018-08-27T09:21:40.301Z,23.2
2018-08-27T09:22:40.319Z,23.25
2018-08-27T09:23:40.493Z,23.17
2018-08-27T09:24:40.361Z,23.25
2018-08-27T09:25:40.354Z,23.33
2018-08-27T09:26:40.322Z,23.23
2018-08-27T09:27:40.366Z,23.42
2018-08-27T09:28:40.307Z,23.48
2018-08-27T09:29:40.376Z,23.58
2018-08-27T09:30:40.382Z,23.48
2018-08-27T09:31:40.345Z,23.67
2018-08-27T09:32:42.279Z,23.44
2018-08-27T09:33:40.305Z,23.67
2018-08-27T09:38:58.298Z,23.74
2018-08-27T09:39:10.552Z,24.79
2018-08-27T09:40:10.622Z,24.69
2018-08-27T09:41:10.530Z,24.55
2018-08-27T09:42:10.596Z,24.4
2018-08-27T09:43:10.537Z,24.63
2018-08-27T09:44:10.530Z,24.43
2018-08-27T09:45:10.582Z,24.41
2018-08-27T09:46:10.535Z,24.41
2018-08-27T09:47:10.596Z,23.84
2018-08-27T09:48:10.584Z,23.91
2018-08-27T09:49:10.683Z,23.95
2018-08-27T09:50:10.840Z,23.85
2018-08-27T09:51:10.529Z,23.84
2018-08-27T09:52:10.540Z,23.84
2018-08-27T09:53:10.698Z,23.73
2018-08-27T09:54:10.551Z,23.42
2018-08-27T09:55:10.588Z,23.4
2018-08-27T09:56:10.560Z,23.37
2018-08-27T09:57:10.536Z,23.47
2018-08-27T09:58:10.608Z,23.4
2018-08-27T09:59:10.962Z,23.17
2018-08-27T10:00:10.595Z,22.98
2018-08-27T10:01:10.560Z,23.1
2018-08-27T10:02:10.562Z,22.77
2018-08-27T10:03:10.598Z,22.74
2018-08-27T10:04:10.574Z,22.93
2018-08-27T10:05:10.686Z,22.8
2018-08-27T10:06:10.697Z,22.96
2018-08-27T10:07:10.607Z,22.95
2018-08-27T10:08:10.603Z,23.07
2018-08-27T10:09:10.789Z,23.16
2018-08-27T10:10:10.826Z,23.06
2018-08-27T10:11:10.761Z,23.01
2018-08-27T10:12:10.600Z,23.07
2018-08-27T10:13:10.593Z,23.04
2018-08-27T10:14:10.652Z,22.93
2018-08-27T10:15:10.802Z,23.01
2018-08-27T10:16:10.596Z,23.04
2018-08-27T10:17:10.620Z,23.1
2018-08-27T10:18:10.603Z,23.02
2018-08-27T10:19:10.649Z,23.23
2018-08-27T10:20:10.678Z,23.13
2018-08-27T10:21:10.751Z,23.39
2018-08-27T10:22:10.689Z,23.28
2018-08-27T10:23:10.666Z,23.34
2018-08-27T10:24:10.644Z,23.47
2018-08-27T10:25:10.681Z,23.04
2018-08-27T10:26:10.586Z,23.06
2018-08-27T10:27:10.600Z,23.14
2018-08-27T10:28:10.590Z,23.04
2018-08-27T10:29:10.609Z,23.06
2018-08-27T10:30:10.744Z,23.07
2018-08-27T10:31:10.629Z,23.01
2018-08-27T10:32:10.593Z,23.07
2018-08-27T10:33:10.623Z,22.76
2018-08-27T10:34:10.898Z,22.89
2018-08-27T10:35:10.952Z,23.1
2018-08-27T10:36:10.890Z,23.02
2018-08-27T10:37:10.846Z,23.02
2018-08-27T10:39:31.654Z,23.13
2018-08-27T10:40:31.666Z,23.13
2018-08-27T10:51:31.562Z,23.45
2018-08-27T10:52:31.534Z,23.63
2018-08-27T10:53:31.577Z,23.59
2018-08-27T10:54:31.513Z,23.74
2018-08-27T10:55:31.563Z,24
2018-08-27T10:56:31.567Z,24.28
2018-08-27T10:57:31.602Z,24.81
2018-08-27T10:58:31.701Z,25.14
2018-08-27T10:59:31.620Z,25.51
2018-08-27T11:00:31.595Z,25.67
2018-08-27T11:01:31.696Z,25.93
2018-08-27T11:02:31.697Z,25.31
2018-08-27T11:03:31.583Z,25.06
2018-08-27T11:04:31.601Z,25.54
2018-08-27T11:05:31.557Z,25.92
2018-08-27T11:06:31.561Z,25.76
2018-08-27T11:07:31.602Z,25.78
2018-08-27T11:09:53.600Z,25.89
2018-08-27T11:10:53.735Z,25.86
2018-08-27T11:11:53.625Z,25.81
2018-08-27T11:12:53.585Z,25.55
2018-08-27T11:13:53.614Z,25.55
2018-08-27T11:14:53.706Z,25.29
2018-08-27T11:15:53.604Z,25.39
2018-08-27T11:20:22.890Z,25.25
2018-08-27T11:21:22.743Z,24.89
2018-08-27T11:22:22.696Z,25.24
2018-08-27T11:23:22.770Z,25.3
2018-08-27T11:24:23.460Z,25.25
2018-08-27T11:25:22.768Z,25.25
2018-08-27T11:26:22.907Z,25.22
2018-08-27T11:27:23.342Z,25.41
2018-08-27T11:28:22.755Z,25.12
2018-08-27T11:29:22.760Z,25.06
2018-08-27T11:30:22.848Z,24.88
2018-08-27T11:31:22.779Z,24.94
2018-08-27T11:32:22.733Z,25.06
2018-08-27T11:33:22.705Z,25.03
2018-08-27T11:34:22.748Z,25.09
2018-08-27T11:35:22.738Z,24.74
2018-08-27T11:36:22.727Z,24.84
2018-08-27T11:37:22.786Z,25.01
2018-08-27T11:38:22.823Z,25.09
2018-08-27T11:39:22.778Z,25.09
2018-08-27T11:40:22.770Z,25.03
2018-08-27T11:41:22.738Z,24.99
2018-08-27T11:42:22.734Z,25.14
2018-08-27T11:43:22.914Z,25.07
2018-08-27T11:44:22.812Z,25.03
2018-08-27T11:45:22.868Z,25.04
2018-08-27T11:46:22.794Z,24.88
2018-08-27T11:47:22.843Z,24.88
2018-08-27T11:48:22.792Z,24.92
2018-08-27T11:49:22.803Z,24.77
2018-08-27T11:50:23.497Z,24.75
2018-08-27T11:51:22.856Z,24.77
2018-08-27T11:52:22.754Z,24.89
2018-08-27T11:53:22.830Z,25.03
2018-08-27T11:54:22.838Z,25.19
2018-08-27T11:55:22.813Z,25.3
2018-08-27T11:56:22.815Z,24.89
2018-08-27T12:01:40.162Z,25.33
2018-08-27T12:01:52.979Z,25.24
2018-08-27T12:02:57.498Z,25.01
2018-08-27T12:03:52.824Z,25.07
2018-08-27T12:04:52.931Z,25.07
2018-08-27T12:05:52.811Z,25.03
2018-08-27T12:06:52.855Z,25.21
2018-08-27T12:07:52.829Z,25.21
2018-08-27T12:08:52.952Z,25.26
2018-08-27T12:09:52.857Z,25.09
2018-08-27T12:10:52.868Z,24.99
2018-08-27T12:11:52.843Z,25.04
2018-08-27T12:12:52.850Z,24.96
2018-08-27T12:13:52.831Z,24.77
2018-08-27T12:14:52.956Z,24.68
2018-08-27T12:15:52.859Z,24.66
2018-08-27T12:20:23.031Z,24.31
2018-08-27T12:21:23.025Z,24.34
2018-08-27T12:22:23.010Z,24.22
2018-08-27T12:23:23.043Z,24.22
2018-08-27T12:24:23.132Z,24.31
2018-08-27T12:25:23.068Z,24.19
2018-08-27T12:26:25.075Z,24.13
2018-08-27T12:27:23.007Z,24.1
2018-08-27T12:28:23.083Z,24.11
2018-08-27T12:29:23.169Z,24.18
2018-08-27T12:30:23.059Z,23.92
2018-08-27T12:31:23.069Z,23.95
2018-08-27T12:32:23.041Z,23.95
2018-08-27T12:33:23.104Z,23.86
2018-08-27T12:34:23.088Z,23.73
2018-08-27T12:35:23.040Z,23.74
2018-08-27T12:36:23.078Z,23.69
2018-08-27T12:37:23.039Z,23.62
2018-08-27T12:41:54.878Z,23.84
2018-08-27T12:42:54.856Z,23.67
2018-08-27T12:43:54.802Z,23.67
2018-08-27T12:44:54.761Z,23.25
2018-08-27T12:45:54.708Z,23.55
2018-08-27T12:46:54.787Z,23.59
2018-08-27T12:47:54.752Z,23.56
2018-08-27T12:48:54.761Z,23.55
2018-08-27T12:49:54.761Z,23.58
2018-08-27T12:50:54.931Z,23.63
2018-08-27T13:00:33.166Z,23.62
2018-08-27T13:00:45.438Z,23.39
2018-08-27T13:01:45.426Z,23.13
2018-08-27T13:02:45.485Z,23.36
2018-08-27T13:03:45.067Z,23.21
2018-08-27T13:04:45.471Z,22.93
2018-08-27T13:05:45.057Z,23.13
2018-08-27T13:06:45.418Z,23.23
2018-08-27T13:07:45.592Z,23.02
2018-08-27T13:08:45.436Z,22.93
2018-08-27T13:09:45.437Z,22.91
2018-08-27T13:10:45.472Z,23.1
2018-08-27T13:11:45.444Z,23.16
2018-08-27T13:12:45.543Z,23.33
2018-08-27T13:13:45.467Z,23.39
2018-08-27T13:14:45.466Z,23.55
2018-08-27T13:15:45.446Z,23.47
2018-08-27T13:16:45.439Z,23.29
2018-08-27T13:17:45.431Z,23.25
2018-08-27T13:18:45.499Z,23.21
2018-08-27T13:19:45.426Z,23.39
2018-08-27T13:20:45.478Z,23.59
2018-08-27T13:21:45.576Z,23.85
2018-08-27T13:22:45.426Z,23.99
2018-08-27T13:23:45.449Z,24.18
2018-08-27T13:39:28.821Z,24.4
2018-08-27T13:40:02.239Z,24.41
2018-08-27T13:45:30.676Z,24.1
2018-08-27T13:46:30.631Z,24.36
2018-08-27T13:47:30.639Z,24.29
2018-08-27T13:48:30.671Z,24.11
2018-08-27T13:49:30.579Z,24.11
2018-08-27T13:50:30.575Z,23.76
2018-08-27T13:51:30.716Z,23.86
2018-08-27T13:52:30.646Z,23.85
2018-08-27T13:53:30.638Z,23.99
2018-08-27T13:54:30.661Z,24.07
2018-08-27T13:55:30.642Z,23.99
2018-08-27T13:56:30.738Z,23.91
2018-08-27T13:57:30.631Z,23.89
2018-08-27T13:58:30.629Z,23.74
2018-08-27T13:59:30.711Z,23.94
2018-08-27T14:00:30.753Z,23.89
2018-08-27T14:01:30.680Z,23.96
2018-08-27T14:02:30.660Z,23.91
2018-08-27T14:03:30.741Z,24
2018-08-27T14:04:31.374Z,24.18
2018-08-27T14:05:30.741Z,24.34
2018-08-27T14:06:30.732Z,24.11
2018-08-27T14:07:30.567Z,24.4
2018-08-27T14:08:30.930Z,24.59
2018-08-27T14:09:30.697Z,24.82
2018-08-27T14:10:30.642Z,24.84
2018-08-27T14:11:30.664Z,24.81
2018-08-27T14:12:31.967Z,24.86
2018-08-27T14:13:31.217Z,24.81
2018-08-27T14:14:31.332Z,24.79
2018-08-27T14:15:30.805Z,24.86
2018-08-27T14:16:30.701Z,24.51
2018-08-27T14:17:30.629Z,24.62
2018-08-27T14:18:31.486Z,24.59
2018-08-27T14:19:30.870Z,24.56
2018-08-27T14:20:30.783Z,24.53
2018-08-27T14:21:30.677Z,24.69
2018-08-27T14:22:30.684Z,24.41
2018-08-27T14:23:30.745Z,24.41
2018-08-27T14:24:30.852Z,24.41
2018-08-27T14:25:30.742Z,24.59
2018-08-27T14:26:30.763Z,24.71
2018-08-27T14:27:31.530Z,24.85
2018-08-27T14:28:30.732Z,24.4
2018-08-27T14:29:30.705Z,24.48